Time;durP1;ratioP1;P1;durP2;ratioP2;P2;SDS_P1;SDS_P2;PMS_P1;PMS_P2;Temp;Humidity;BMP_temperature;BMP_pressure;BME280_temperature;BME280_humidity;BME280_pressure;Samples;Min_cycle;Max_cycle;Signal;HPM_P1;HPM_P2
2023/01/03 00:00:18;;;;;;;0.77;0.77;;;;;;;;;;5021675;28;20030;-88
2023/01/03 00:02:44;;;;;;;0.80;0.80;;;;;;;;;;5019695;28;20489;-86
2023/01/03 00:05:09;;;;;;;0.70;0.70;;;;;;;;;;5021186;28;20718;-86
2023/01/03 00:07:35;;;;;;;0.90;0.90;;;;;;;;;;5022389;28;20579;-88
2023/01/03 00:10:09;;;;;;;1.02;0.88;;;;;;;;;;5010665;28;20033;-88
2023/01/03 00:12:56;;;;;;;2.15;1.05;;;;;;;;;;5023250;28;20021;-88
2023/01/03 00:15:22;;;;;;;2.33;0.98;;;;;;;;;;5010429;28;20025;-87
2023/01/03 00:17:47;;;;;;;0.90;0.90;;;;;;;;;;5003385;28;20048;-87
2023/01/03 00:20:12;;;;;;;1.48;0.80;;;;;;;;;;5021029;28;20086;-88
2023/01/03 00:22:38;;;;;;;0.82;0.82;;;;;;;;;;5011483;28;20080;-87
2023/01/03 00:25:04;;;;;;;1.33;0.68;;;;;;;;;;5012362;28;20033;-85
2023/01/03 00:27:29;;;;;;;0.80;0.80;;;;;;;;;;5011015;28;20496;-85
2023/01/03 00:29:57;;;;;;;0.73;0.73;;;;;;;;;;5013848;28;20041;-84
2023/01/03 00:32:25;;;;;;;0.73;0.73;;;;;;;;;;5026902;28;20033;-86
2023/01/03 00:34:51;;;;;;;0.80;0.80;;;;;;;;;;5025077;28;20034;-87
2023/01/03 00:37:20;;;;;;;0.80;0.70;;;;;;;;;;5002777;28;20029;-86
2023/01/03 00:39:46;;;;;;;1.92;0.70;;;;;;;;;;5010742;28;21077;-85
2023/01/03 00:42:11;;;;;;;0.93;0.80;;;;;;;;;;5006072;28;20117;-88
2023/01/03 00:44:37;;;;;;;0.73;0.73;;;;;;;;;;5020488;28;20128;-88
2023/01/03 00:47:05;;;;;;;2.95;0.73;;;;;;;;;;5003918;28;20476;-87
2023/01/03 00:49:31;;;;;;;0.68;0.68;;;;;;;;;;5020421;28;20097;-87
2023/01/03 00:51:57;;;;;;;1.08;0.65;;;;;;;;;;5003575;28;20102;-87
2023/01/03 00:54:23;;;;;;;1.00;0.95;;;;;;;;;;5000427;28;20033;-86
2023/01/03 00:56:53;;;;;;;0.52;0.52;;;;;;;;;;5023511;28;20039;-88
2023/01/03 00:59:20;;;;;;;1.75;0.98;;;;;;;;;;5026339;28;20026;-85
2023/01/03 01:01:53;;;;;;;1.33;0.60;;;;;;;;;;5020359;28;20050;-87
2023/01/03 01:04:31;;;;;;;0.63;0.63;;;;;;;;;;5022672;28;20033;-86
2023/01/03 01:07:06;;;;;;;0.88;0.63;;;;;;;;;;5021945;28;20084;-86
2023/01/03 01:09:39;;;;;;;3.60;0.70;;;;;;;;;;5006231;28;20133;-87
2023/01/03 01:12:11;;;;;;;0.85;0.85;;;;;;;;;;5023949;28;20509;-87
2023/01/03 01:14:37;;;;;;;0.73;0.73;;;;;;;;;;5008242;28;20030;-86
2023/01/03 01:17:08;;;;;;;0.68;0.60;;;;;;;;;;5003523;28;20136;-86
2023/01/03 01:23:06;;;;;;;0.82;0.63;;;;;;;;;;5027968;28;20036;-87
2023/01/03 01:25:36;;;;;;;0.70;0.70;;;;;;;;;;5013151;28;20029;-87
2023/01/03 01:29:04;;;;;;;0.80;0.80;;;;;;;;;;5010938;28;20042;-87
2023/01/03 01:31:32;;;;;;;1.25;0.80;;;;;;;;;;5029285;28;20036;-86
2023/01/03 01:33:57;;;;;;;5.75;0.82;;;;;;;;;;5014381;28;20017;-84
2023/01/03 01:36:26;;;;;;;0.73;0.73;;;;;;;;;;5025693;28;20028;-85
2023/01/03 01:39:04;;;;;;;1.02;0.90;;;;;;;;;;5027755;28;20128;-84
2023/01/03 01:44:41;;;;;;;0.75;0.75;;;;;;;;;;5047775;28;20056;-86
2023/01/03 01:47:45;;;;;;;1.75;0.80;;;;;;;;;;5046297;28;20040;-86
2023/01/03 01:50:16;;;;;;;2.28;0.93;;;;;;;;;;5037489;28;20045;-85
2023/01/03 01:52:49;;;;;;;0.57;0.57;;;;;;;;;;5007146;28;20131;-85
2023/01/03 01:55:18;;;;;;;0.70;0.70;;;;;;;;;;5021197;28;20471;-86
2023/01/03 01:57:44;;;;;;;0.68;0.65;;;;;;;;;;5017960;28;20022;-86
2023/01/03 02:00:11;;;;;;;1.13;0.90;;;;;;;;;;5017774;28;20461;-85
2023/01/03 02:02:41;;;;;;;1.10;1.02;;;;;;;;;;5000316;28;20475;-85
2023/01/03 02:05:10;;;;;;;0.80;0.80;;;;;;;;;;5017172;28;20033;-85
2023/01/03 02:07:37;;;;;;;2.15;0.70;;;;;;;;;;5014423;28;20022;-85
2023/01/03 02:10:06;;;;;;;0.60;0.60;;;;;;;;;;5011231;28;20045;-85
2023/01/03 02:13:05;;;;;;;0.80;0.80;;;;;;;;;;5005601;28;20510;-84
2023/01/03 02:15:56;;;;;;;0.73;0.73;;;;;;;;;;5013015;28;20024;-86
2023/01/03 02:18:31;;;;;;;0.70;0.70;;;;;;;;;;4997150;28;20124;-85
2023/01/03 02:21:15;;;;;;;3.92;1.10;;;;;;;;;;5006477;28;20033;-86
2023/01/03 02:24:28;;;;;;;1.10;0.77;;;;;;;;;;5020621;28;20029;-85
2023/01/03 02:27:26;;;;;;;0.80;0.80;;;;;;;;;;4978538;28;20053;-85
2023/01/03 02:30:16;;;;;;;1.75;0.80;;;;;;;;;;5031069;28;20049;-85
2023/01/03 02:33:01;;;;;;;0.70;0.70;;;;;;;;;;5017120;28;20503;-87
2023/01/03 02:35:42;;;;;;;1.48;0.75;;;;;;;;;;5034800;28;20029;-87
2023/01/03 02:38:29;;;;;;;1.02;0.80;;;;;;;;;;5033245;28;20033;-86
2023/01/03 02:41:10;;;;;;;0.60;0.60;;;;;;;;;;5021808;28;20044;-86
2023/01/03 02:43:46;;;;;;;1.05;0.77;;;;;;;;;;5008248;28;20018;-87
2023/01/03 02:46:41;;;;;;;0.82;0.77;;;;;;;;;;5008565;28;21188;-85
2023/01/03 02:49:17;;;;;;;0.50;0.50;;;;;;;;;;5016608;28;20069;-86
2023/01/03 02:51:46;;;;;;;1.55;0.93;;;;;;;;;;5005228;28;21112;-85
2023/01/03 02:54:27;;;;;;;0.95;0.60;;;;;;;;;;5021436;28;20442;-86
2023/01/03 02:57:02;;;;;;;0.98;0.70;;;;;;;;;;5022216;28;20033;-86
2023/01/03 02:59:45;;;;;;;1.02;0.70;;;;;;;;;;5022442;28;20096;-86
2023/01/03 03:02:12;;;;;;;7.32;1.10;;;;;;;;;;5010294;28;20029;-86
2023/01/03 03:04:40;;;;;;;1.40;0.93;;;;;;;;;;5023844;28;20140;-86
2023/01/03 03:07:32;;;;;;;2.25;0.80;;;;;;;;;;5022258;28;20025;-85
2023/01/03 03:15:36;;;;;;;0.90;0.70;;;;;;;;;;5017928;28;20032;-84
2023/01/03 03:18:07;;;;;;;1.10;0.82;;;;;;;;;;5018175;28;20480;-85
2023/01/03 03:26:20;;;;;;;0.63;0.63;;;;;;;;;;5023322;28;20590;-85
2023/01/03 03:28:52;;;;;;;0.82;0.82;;;;;;;;;;5023517;28;20487;-85
2023/01/03 03:31:23;;;;;;;2.08;1.30;;;;;;;;;;5025289;28;20032;-85
2023/01/03 03:34:13;;;;;;;2.67;1.23;;;;;;;;;;5019619;28;20033;-85
2023/01/03 03:36:56;;;;;;;0.85;0.85;;;;;;;;;;5019699;28;20041;-84
2023/01/03 03:45:26;;;;;;;0.80;0.80;;;;;;;;;;5024098;28;20033;-84
2023/01/03 03:48:02;;;;;;;0.95;0.88;;;;;;;;;;5036678;28;20025;-85
2023/01/03 03:50:39;;;;;;;2.05;1.30;;;;;;;;;;5031221;28;20022;-85
2023/01/03 03:53:07;;;;;;;2.20;1.15;;;;;;;;;;5021926;28;20029;-86
2023/01/03 03:55:38;;;;;;;1.70;0.90;;;;;;;;;;5026100;28;20041;-87
2023/01/03 03:58:15;;;;;;;1.48;0.98;;;;;;;;;;5020828;28;20514;-85
2023/01/03 04:00:42;;;;;;;1.15;0.98;;;;;;;;;;5019740;28;20030;-85
2023/01/03 04:03:09;;;;;;;2.17;1.20;;;;;;;;;;5025285;28;20025;-87
2023/01/03 04:05:41;;;;;;;0.80;0.80;;;;;;;;;;5035278;28;20029;-86
2023/01/03 04:08:07;;;;;;;;;;;;;;;;;;5036129;28;20033;-87
2023/01/03 04:10:32;;;;;;;5.22;1.00;;;;;;;;;;5036701;28;19913;-87
2023/01/03 04:12:57;;;;;;;2.78;1.05;;;;;;;;;;5035416;28;20028;-87
2023/01/03 04:15:23;;;;;;;1.13;1.02;;;;;;;;;;5018631;28;20025;-87
2023/01/03 04:17:48;;;;;;;1.05;0.77;;;;;;;;;;5036797;28;20952;-86
2023/01/03 04:20:14;;;;;;;0.98;0.98;;;;;;;;;;5021693;28;20045;-85
2023/01/03 04:22:40;;;;;;;1.73;1.20;;;;;;;;;;5037959;28;20039;-85
2023/01/03 04:25:06;;;;;;;0.90;0.90;;;;;;;;;;5032656;28;20060;-85
2023/01/03 04:27:32;;;;;;;1.00;0.98;;;;;;;;;;5044473;28;20053;-85
2023/01/03 04:29:57;;;;;;;1.17;1.00;;;;;;;;;;5035760;28;20021;-85
2023/01/03 04:32:23;;;;;;;1.30;1.20;;;;;;;;;;5017459;28;20483;-87
2023/01/03 04:34:48;;;;;;;1.15;1.05;;;;;;;;;;5033088;28;20092;-86
2023/01/03 04:37:13;;;;;;;1.73;1.35;;;;;;;;;;5034704;28;20087;-86
2023/01/03 04:39:39;;;;;;;0.88;0.88;;;;;;;;;;5017468;28;20032;-85
2023/01/03 04:44:00;;;;;;;3.72;1.13;;;;;;;;;;5017168;28;20021;-85
2023/01/03 04:44:49;;;;;;;1.40;1.30;;;;;;;;;;5030696;28;20060;-85
2023/01/03 04:47:15;;;;;;;1.00;1.00;;;;;;;;;;5032545;28;20041;-85
2023/01/03 04:49:45;;;;;;;2.13;1.48;;;;;;;;;;5025122;28;20025;-85
2023/01/03 04:52:10;;;;;;;1.40;1.30;;;;;;;;;;5020568;28;20025;-86
2023/01/03 04:54:37;;;;;;;2.53;0.98;;;;;;;;;;5021808;28;20651;-86
2023/01/03 04:57:03;;;;;;;1.25;1.20;;;;;;;;;;5022612;28;20502;-87
2023/01/03 04:59:28;;;;;;;0.82;0.77;;;;;;;;;;5018124;28;20025;-85
2023/01/03 05:01:54;;;;;;;1.40;1.27;;;;;;;;;;5021662;28;20442;-85
2023/01/03 05:04:19;;;;;;;1.08;1.05;;;;;;;;;;5003673;28;20034;-87
2023/01/03 05:06:44;;;;;;;1.55;1.20;;;;;;;;;;5021890;28;20041;-87
2023/01/03 05:09:10;;;;;;;3.33;1.20;;;;;;;;;;5021056;28;20032;-87
2023/01/03 05:11:35;;;;;;;1.58;1.30;;;;;;;;;;5005221;28;20030;-86
2023/01/03 05:14:00;;;;;;;1.02;1.02;;;;;;;;;;5025395;28;20021;-87
2023/01/03 05:16:26;;;;;;;1.35;1.27;;;;;;;;;;5018652;28;20029;-86
2023/01/03 05:18:52;;;;;;;2.97;1.27;;;;;;;;;;5020430;28;20013;-85
2023/01/03 05:26:49;;;;;;;1.23;1.10;;;;;;;;;;5020910;28;20099;-86
2023/01/03 05:29:19;;;;;;;1.45;1.40;;;;;;;;;;5018559;28;20053;-85
2023/01/03 05:31:44;;;;;;;1.30;1.20;;;;;;;;;;5017419;28;20466;-86
2023/01/03 05:34:09;;;;;;;1.38;1.23;;;;;;;;;;5016939;28;20714;-86
2023/01/03 05:36:35;;;;;;;1.42;1.30;;;;;;;;;;5015257;28;20469;-86
2023/01/03 05:39:00;;;;;;;1.25;1.10;;;;;;;;;;4997573;28;20025;-85
2023/01/03 05:44:10;;;;;;;1.42;1.02;;;;;;;;;;5020155;28;20037;-85
2023/01/03 05:46:35;;;;;;;2.03;1.30;;;;;;;;;;5022905;28;20029;-85
2023/01/03 05:49:01;;;;;;;1.35;1.10;;;;;;;;;;5023179;28;20054;-85
2023/01/03 05:51:26;;;;;;;2.83;1.20;;;;;;;;;;5005436;28;20083;-86
2023/01/03 05:53:52;;;;;;;1.35;1.25;;;;;;;;;;5010124;28;21104;-85
2023/01/03 05:56:17;;;;;;;1.50;1.05;;;;;;;;;;5011580;28;20036;-87
2023/01/03 05:58:43;;;;;;;1.58;1.27;;;;;;;;;;5029760;28;20033;-86
2023/01/03 06:01:09;;;;;;;1.30;1.20;;;;;;;;;;5027840;28;20029;-87
2023/01/03 06:03:35;;;;;;;1.30;1.20;;;;;;;;;;5030690;28;20034;-88
2023/01/03 06:06:04;;;;;;;4.88;2.05;;;;;;;;;;5028569;28;20033;-87
2023/01/03 06:08:30;;;;;;;1.92;1.50;;;;;;;;;;5029303;28;20661;-87
2023/01/03 06:10:55;;;;;;;1.83;1.60;;;;;;;;;;5028039;28;20025;-87
2023/01/03 06:13:22;;;;;;;3.28;1.63;;;;;;;;;;5033808;28;20021;-85
2023/01/03 06:17:53;;;;;;;3.92;2.50;;;;;;;;;;5025877;28;20024;-85
2023/01/03 06:18:34;;;;;;;2.47;1.90;;;;;;;;;;5026782;28;20041;-86
2023/01/03 06:21:03;;;;;;;1.65;1.42;;;;;;;;;;5031339;28;20033;-86
2023/01/03 06:23:29;;;;;;;1.05;1.05;;;;;;;;;;5032365;28;20036;-86
2023/01/03 06:25:54;;;;;;;2.08;1.27;;;;;;;;;;5032806;28;20403;-86
2023/01/03 06:28:19;;;;;;;1.70;1.35;;;;;;;;;;5032102;28;20507;-87
2023/01/03 06:30:45;;;;;;;3.28;1.50;;;;;;;;;;5033215;28;20044;-86
2023/01/03 06:33:11;;;;;;;1.50;1.30;;;;;;;;;;5030191;28;20022;-85
2023/01/03 06:35:39;;;;;;;1.70;1.10;;;;;;;;;;5015650;28;20048;-86
2023/01/03 06:38:05;;;;;;;1.75;1.23;;;;;;;;;;5033366;28;20104;-87
2023/01/03 06:40:30;;;;;;;1.67;1.38;;;;;;;;;;5029681;28;20056;-84
2023/01/03 06:42:56;;;;;;;1.02;1.00;;;;;;;;;;5032148;28;20033;-85
2023/01/03 06:53:39;;;;;;;3.58;1.92;;;;;;;;;;5018801;28;20113;-85
2023/01/03 06:56:05;;;;;;;2.55;1.48;;;;;;;;;;5022071;28;20116;-85
2023/01/03 06:58:30;;;;;;;4.10;1.70;;;;;;;;;;5031477;28;20372;-85
2023/01/03 07:00:58;;;;;;;2.25;1.33;;;;;;;;;;5021908;28;20056;-85
2023/01/03 07:03:24;;;;;;;1.85;1.42;;;;;;;;;;5022452;28;20053;-86
2023/01/03 07:05:50;;;;;;;3.28;1.20;;;;;;;;;;5017108;28;20964;-85
2023/01/03 07:08:15;;;;;;;4.50;1.60;;;;;;;;;;5019215;28;20469;-84
2023/01/03 07:10:40;;;;;;;1.27;1.17;;;;;;;;;;5018720;28;20053;-86
2023/01/03 07:15:50;;;;;;;2.67;1.13;;;;;;;;;;5020460;28;20133;-86
2023/01/03 07:18:15;;;;;;;2.50;1.35;;;;;;;;;;5019780;28;20045;-85
2023/01/03 07:20:42;;;;;;;1.33;1.23;;;;;;;;;;5032444;28;20044;-86
2023/01/03 07:23:08;;;;;;;1.13;1.02;;;;;;;;;;5046181;28;20117;-84
2023/01/03 07:25:33;;;;;;;2.20;1.35;;;;;;;;;;5045718;28;20029;-85
2023/01/03 07:27:59;;;;;;;3.72;1.65;;;;;;;;;;5037873;28;20037;-87
2023/01/03 07:30:24;;;;;;;4.10;1.50;;;;;;;;;;5037483;28;20467;-87
2023/01/03 07:32:49;;;;;;;2.15;1.65;;;;;;;;;;5037078;28;20516;-86
2023/01/03 07:35:15;;;;;;;1.52;1.27;;;;;;;;;;5031893;28;20022;-86
2023/01/03 07:37:40;;;;;;;7.38;1.30;;;;;;;;;;5031237;28;20096;-87
2023/01/03 07:40:06;;;;;;;1.33;1.23;;;;;;;;;;5032252;28;20034;-85
2023/01/03 07:45:15;;;;;;;1.25;1.15;;;;;;;;;;5028177;28;20043;-87
2023/01/03 07:47:45;;;;;;;1.50;1.40;;;;;;;;;;5027004;28;20504;-87
2023/01/03 07:50:10;;;;;;;2.70;1.80;;;;;;;;;;5028941;28;20704;-87
2023/01/03 07:52:36;;;;;;;1.25;1.15;;;;;;;;;;5026652;28;20037;-87
2023/01/03 07:55:01;;;;;;;13.95;1.58;;;;;;;;;;5027350;28;20034;-85
2023/01/03 07:57:28;;;;;;;5.60;1.70;;;;;;;;;;5026211;28;20083;-85
2023/01/03 07:59:53;;;;;;;1.83;1.42;;;;;;;;;;5027306;28;20029;-85
2023/01/03 08:02:19;;;;;;;7.93;1.80;;;;;;;;;;5025845;28;20060;-86
2023/01/03 08:04:44;;;;;;;2.33;1.63;;;;;;;;;;5027020;28;20033;-86
2023/01/03 08:07:10;;;;;;;1.60;1.30;;;;;;;;;;5023986;28;20053;-86
2023/01/03 08:15:03;;;;;;;2.25;1.50;;;;;;;;;;5025821;28;20040;-85
2023/01/03 08:17:29;;;;;;;1.73;1.40;;;;;;;;;;5026386;28;20029;-85
2023/01/03 08:19:54;;;;;;;1.55;1.45;;;;;;;;;;5021935;28;20026;-85
2023/01/03 08:22:19;;;;;;;1.55;1.38;;;;;;;;;;5023733;28;20051;-85
2023/01/03 08:24:45;;;;;;;2.38;1.88;;;;;;;;;;5007108;28;20536;-85
2023/01/03 08:27:10;;;;;;;3.92;1.70;;;;;;;;;;5005234;28;20037;-84
2023/01/03 08:29:35;;;;;;;3.00;1.55;;;;;;;;;;5025281;28;20021;-85
2023/01/03 08:32:01;;;;;;;4.50;1.42;;;;;;;;;;5019977;28;20036;-86
2023/01/03 08:34:32;;;;;;;8.48;1.75;;;;;;;;;;5026689;28;20104;-85
2023/01/03 08:37:00;;;;;;;1.38;1.27;;;;;;;;;;5026538;28;20567;-86
2023/01/03 08:39:30;;;;;;;2.22;1.40;;;;;;;;;;5009415;28;20514;-88
2023/01/03 08:42:01;;;;;;;1.55;1.45;;;;;;;;;;5026256;28;20116;-87
2023/01/03 08:44:26;;;;;;;1.27;1.17;;;;;;;;;;5013664;28;20037;-86
2023/01/03 08:46:54;;;;;;;1.65;1.50;;;;;;;;;;5024338;28;20029;-86
2023/01/03 08:49:20;;;;;;;7.78;2.45;;;;;;;;;;5024926;28;20459;-83
2023/01/03 08:51:45;;;;;;;2.47;1.55;;;;;;;;;;5023280;28;20037;-85
2023/01/03 08:54:11;;;;;;;3.97;2.30;;;;;;;;;;5024737;28;20408;-84
2023/01/03 08:56:38;;;;;;;1.88;1.75;;;;;;;;;;5004196;28;20447;-85
2023/01/03 08:59:03;;;;;;;2.13;1.77;;;;;;;;;;5023265;28;20034;-87
2023/01/03 09:01:29;;;;;;;3.20;2.13;;;;;;;;;;5029500;28;20037;-86
2023/01/03 09:03:54;;;;;;;2.72;1.85;;;;;;;;;;5022096;28;20036;-88
2023/01/03 09:06:19;;;;;;;2.63;1.85;;;;;;;;;;5024362;28;20021;-84
2023/01/03 09:08:45;;;;;;;2.05;1.63;;;;;;;;;;5009024;28;20029;-86
2023/01/03 09:11:10;;;;;;;3.28;2.30;;;;;;;;;;5024007;28;21380;-84
2023/01/03 09:13:36;;;;;;;4.50;2.28;;;;;;;;;;5026564;28;20693;-87
2023/01/03 09:16:05;;;;;;;2.38;1.90;;;;;;;;;;5025550;28;20059;-83
2023/01/03 09:18:32;;;;;;;4.00;1.90;;;;;;;;;;5031036;28;20036;-84
2023/01/03 09:20:57;;;;;;;2.92;2.30;;;;;;;;;;5032964;28;20025;-83
2023/01/03 09:23:23;;;;;;;3.15;2.40;;;;;;;;;;5036557;28;20030;-85
2023/01/03 09:25:48;;;;;;;4.03;2.40;;;;;;;;;;5036597;28;20022;-82
2023/01/03 09:28:13;;;;;;;3.60;2.42;;;;;;;;;;5027470;28;20089;-82
2023/01/03 09:30:39;;;;;;;3.03;2.72;;;;;;;;;;5037014;28;20025;-83
2023/01/03 09:33:04;;;;;;;4.38;2.58;;;;;;;;;;5039482;28;20025;-82
2023/01/03 09:35:31;;;;;;;7.28;2.78;;;;;;;;;;5038498;28;20028;-85
2023/01/03 09:37:56;;;;;;;2.95;2.25;;;;;;;;;;5043204;28;20053;-85
2023/01/03 09:40:23;;;;;;;4.22;2.10;;;;;;;;;;5046519;28;20017;-84
2023/01/03 09:45:34;;;;;;;5.90;2.50;;;;;;;;;;5033019;28;20120;-86
2023/01/03 09:48:02;;;;;;;6.30;2.72;;;;;;;;;;5033732;28;20025;-86
2023/01/03 09:50:31;;;;;;;8.27;3.00;;;;;;;;;;5003642;28;20021;-85
2023/01/03 10:03:42;;;;;;;3.58;2.25;;;;;;;;;;5017890;28;20093;-85
2023/01/03 10:04:46;;;;;;;3.50;2.28;;;;;;;;;;5019336;28;20040;-84
2023/01/03 10:08:00;;;;;;;11.15;2.35;;;;;;;;;;5018786;28;20025;-86
2023/01/03 10:10:31;;;;;;;3.22;2.53;;;;;;;;;;5014091;28;20056;-86
2023/01/03 10:13:23;;;;;;;4.18;2.50;;;;;;;;;;5023455;28;20026;-85
2023/01/03 10:16:14;;;;;;;5.13;2.38;;;;;;;;;;5025322;28;20030;-86
2023/01/03 10:18:42;;;;;;;4.03;2.75;;;;;;;;;;5027341;28;20018;-84
2023/01/03 10:21:29;;;;;;;7.00;2.72;;;;;;;;;;5029139;28;20080;-87
2023/01/03 10:23:54;;;;;;;3.45;2.50;;;;;;;;;;5031582;28;20049;-86
2023/01/03 10:26:22;;;;;;;5.85;2.70;;;;;;;;;;5036654;28;20100;-85
2023/01/03 10:28:48;;;;;;;4.90;2.72;;;;;;;;;;5028865;28;20060;-84
2023/01/03 10:31:31;;;;;;;4.45;2.80;;;;;;;;;;5024537;28;20053;-83
2023/01/03 10:33:56;;;;;;;12.02;3.00;;;;;;;;;;5024525;28;20104;-84
2023/01/03 10:36:22;;;;;;;4.15;2.90;;;;;;;;;;5011923;28;20017;-83
2023/01/03 10:39:00;;;;;;;5.75;3.30;;;;;;;;;;5030934;28;20060;-85
2023/01/03 10:41:36;;;;;;;5.35;2.90;;;;;;;;;;5033915;28;20028;-85
2023/01/03 10:44:03;;;;;;;6.97;2.90;;;;;;;;;;5020157;28;20049;-86
2023/01/03 10:46:31;;;;;;;6.10;2.83;;;;;;;;;;5040652;28;20090;-85
2023/01/03 10:49:23;;;;;;;7.45;3.03;;;;;;;;;;5041900;28;20018;-86
2023/01/03 10:51:54;;;;;;;5.93;3.03;;;;;;;;;;5024518;28;20049;-85
2023/01/03 10:54:29;;;;;;;7.57;3.78;;;;;;;;;;5032953;28;20022;-85
2023/01/03 10:56:55;;;;;;;4.93;2.72;;;;;;;;;;5032686;28;20025;-87
2023/01/03 10:59:29;;;;;;;8.48;2.85;;;;;;;;;;5030464;28;20021;-85
2023/01/03 11:02:15;;;;;;;6.97;2.92;;;;;;;;;;5023618;28;20566;-87
2023/01/03 11:04:41;;;;;;;6.28;2.63;;;;;;;;;;5038938;28;20463;-86
2023/01/03 11:07:12;;;;;;;5.45;2.92;;;;;;;;;;5018950;28;20104;-86
2023/01/03 11:09:49;;;;;;;3.90;2.63;;;;;;;;;;5041107;28;20087;-87
2023/01/03 11:12:28;;;;;;;5.50;2.95;;;;;;;;;;5042834;28;20445;-86
2023/01/03 11:14:56;;;;;;;3.80;2.72;;;;;;;;;;5043436;28;20064;-86
2023/01/03 11:17:24;;;;;;;3.35;2.50;;;;;;;;;;5020681;28;20032;-88
2023/01/03 11:19:50;;;;;;;3.90;2.55;;;;;;;;;;5037708;28;20021;-86
2023/01/03 11:22:44;;;;;;;3.58;2.50;;;;;;;;;;5020680;28;20041;-85
2023/01/03 11:25:24;;;;;;;3.75;2.40;;;;;;;;;;5032231;28;20032;-86
2023/01/03 11:28:11;;;;;;;4.82;2.08;;;;;;;;;;5037575;28;20029;-85
2023/01/03 11:31:03;;;;;;;2.70;2.50;;;;;;;;;;5042003;28;20037;-85
2023/01/03 11:33:31;;;;;;;5.90;2.38;;;;;;;;;;5039365;28;20011;-86
2023/01/03 11:36:21;;;;;;;2.67;2.47;;;;;;;;;;5023728;28;20048;-84
2023/01/03 11:39:04;;;;;;;4.25;2.42;;;;;;;;;;5026806;28;20025;-86
2023/01/03 11:41:54;;;;;;;5.00;1.92;;;;;;;;;;5029739;28;20025;-85
2023/01/03 11:44:47;;;;;;;2.10;1.70;;;;;;;;;;5018531;28;20038;-86
2023/01/03 11:47:44;;;;;;;2.72;1.52;;;;;;;;;;5049455;28;20033;-83
2023/01/03 11:50:34;;;;;;;2.63;1.90;;;;;;;;;;5045296;28;20109;-85
2023/01/03 11:53:25;;;;;;;3.45;2.28;;;;;;;;;;5030860;28;20036;-87
2023/01/03 11:56:23;;;;;;;2.60;2.00;;;;;;;;;;5014899;28;20127;-84
2023/01/03 11:59:31;;;;;;;10.77;2.30;;;;;;;;;;4988594;28;20097;-83
2023/01/03 12:02:18;;;;;;;2.92;2.35;;;;;;;;;;5022955;28;20030;-85
2023/01/03 12:04:59;;;;;;;4.20;1.77;;;;;;;;;;5036518;28;20037;-85
2023/01/03 12:07:47;;;;;;;3.88;1.83;;;;;;;;;;5034023;28;20049;-83
2023/01/03 12:10:26;;;;;;;5.22;1.90;;;;;;;;;;5028998;28;20542;-85
2023/01/03 12:13:33;;;;;;;2.58;1.60;;;;;;;;;;5029093;28;20420;-84
2023/01/03 12:16:07;;;;;;;1.52;1.02;;;;;;;;;;5038819;28;20065;-84
2023/01/03 12:18:51;;;;;;;3.80;1.15;;;;;;;;;;5034601;28;20117;-85
2023/01/03 12:21:39;;;;;;;1.13;0.65;;;;;;;;;;5035787;28;20027;-86
2023/01/03 12:24:32;;;;;;;1.98;0.60;;;;;;;;;;5026488;28;20129;-85
2023/01/03 12:27:12;;;;;;;3.08;0.70;;;;;;;;;;5024888;28;20472;-85
2023/01/03 12:29:59;;;;;;;2.10;0.73;;;;;;;;;;5024699;28;20097;-87
2023/01/03 12:32:33;;;;;;;0.82;0.70;;;;;;;;;;5028544;28;20353;-85
2023/01/03 12:35:25;;;;;;;2.42;0.80;;;;;;;;;;5033330;28;21100;-84
2023/01/03 12:37:51;;;;;;;1.40;0.90;;;;;;;;;;5038127;28;20369;-84
2023/01/03 12:40:23;;;;;;;0.70;0.70;;;;;;;;;;5032522;28;20049;-84
2023/01/03 12:43:03;;;;;;;1.20;0.55;;;;;;;;;;5038198;28;20082;-87
2023/01/03 12:45:48;;;;;;;1.75;0.80;;;;;;;;;;5034863;28;20032;-84
2023/01/03 12:48:37;;;;;;;0.68;0.57;;;;;;;;;;5034480;28;20056;-87
2023/01/03 12:51:03;;;;;;;1.08;0.65;;;;;;;;;;5029126;28;20059;-85
2023/01/03 12:53:49;;;;;;;0.88;0.77;;;;;;;;;;5032903;28;20037;-84
2023/01/03 12:56:36;;;;;;;1.13;0.80;;;;;;;;;;5023471;28;20025;-84
2023/01/03 12:59:09;;;;;;;0.95;0.65;;;;;;;;;;5015970;28;20029;-85
2023/01/03 13:01:38;;;;;;;0.45;0.45;;;;;;;;;;5040890;28;20032;-86
2023/01/03 13:04:24;;;;;;;1.08;0.93;;;;;;;;;;5035788;28;20436;-84
2023/01/03 13:07:02;;;;;;;0.57;0.57;;;;;;;;;;5013029;28;20685;-86
2023/01/03 13:10:40;;;;;;;1.48;0.70;;;;;;;;;;5018041;28;20022;-85
2023/01/03 13:13:17;;;;;;;3.30;0.60;;;;;;;;;;4992263;28;20117;-85
2023/01/03 13:15:45;;;;;;;2.20;0.38;;;;;;;;;;5033545;28;20108;-87
2023/01/03 13:18:31;;;;;;;1.08;0.52;;;;;;;;;;5011772;28;20021;-86
2023/01/03 13:27:48;;;;;;;1.67;0.68;;;;;;;;;;5033900;28;20036;-86
2023/01/03 13:30:56;;;;;;;0.30;0.30;;;;;;;;;;5026926;28;20061;-87
2023/01/03 13:57:29;;;;;;;0.40;0.40;;;;;;;;;;4961758;28;20033;-85
2023/01/03 14:00:03;;;;;;;0.63;0.38;;;;;;;;;;4963751;28;20031;-82
2023/01/03 14:03:13;;;;;;;1.38;1.23;;;;;;;;;;4959535;28;20035;-86
2023/01/03 14:06:06;;;;;;;3.00;1.60;;;;;;;;;;5006357;28;20026;-84
2023/01/03 14:08:58;;;;;;;2.90;1.40;;;;;;;;;;5027048;28;20044;-86
2023/01/03 14:11:31;;;;;;;3.47;1.52;;;;;;;;;;5012812;28;20068;-88
2023/01/03 14:14:08;;;;;;;3.38;1.67;;;;;;;;;;5034165;28;20032;-87
2023/01/03 14:16:44;;;;;;;4.43;1.52;;;;;;;;;;5015782;28;20022;-84
2023/01/03 14:19:27;;;;;;;3.00;1.67;;;;;;;;;;5024549;28;20034;-86
2023/01/03 14:22:08;;;;;;;2.75;1.63;;;;;;;;;;5025788;28;20025;-88
2023/01/03 14:24:45;;;;;;;2.05;1.50;;;;;;;;;;5025860;28;20072;-87
2023/01/03 14:27:13;;;;;;;4.47;1.50;;;;;;;;;;5042100;28;20026;-87
2023/01/03 14:29:46;;;;;;;2.83;1.70;;;;;;;;;;5029004;28;20075;-87
2023/01/03 14:32:21;;;;;;;1.52;1.40;;;;;;;;;;5020987;28;20026;-87
2023/01/03 14:34:46;;;;;;;2.63;1.40;;;;;;;;;;5009818;28;20025;-85
2023/01/03 14:37:23;;;;;;;5.05;1.38;;;;;;;;;;5022238;28;20025;-85
2023/01/03 14:39:57;;;;;;;3.53;1.75;;;;;;;;;;5004248;28;20036;-85
2023/01/03 14:42:22;;;;;;;3.70;1.60;;;;;;;;;;5023618;28;20109;-87
2023/01/03 14:45:14;;;;;;;9.63;1.80;;;;;;;;;;5022216;28;20132;-87
2023/01/03 14:47:41;;;;;;;2.28;1.52;;;;;;;;;;5022306;28;20700;-84
2023/01/03 14:50:14;;;;;;;5.32;1.83;;;;;;;;;;5023616;28;20223;-86
2023/01/03 14:52:43;;;;;;;4.22;1.55;;;;;;;;;;5009016;28;20040;-85
2023/01/03 14:55:14;;;;;;;5.47;2.10;;;;;;;;;;5019167;28;20030;-87
2023/01/03 14:58:01;;;;;;;1.90;1.70;;;;;;;;;;5015858;28;20026;-85
2023/01/03 15:00:34;;;;;;;1.77;1.30;;;;;;;;;;5004707;28;20033;-87
2023/01/03 15:03:03;;;;;;;2.03;1.40;;;;;;;;;;5002302;28;20040;-83
2023/01/03 15:05:28;;;;;;;2.05;1.27;;;;;;;;;;5020297;28;20026;-85
2023/01/03 15:08:05;;;;;;;3.50;1.38;;;;;;;;;;5019418;28;20037;-87
2023/01/03 15:10:48;;;;;;;1.25;1.10;;;;;;;;;;5026466;28;20026;-84
2023/01/03 15:13:22;;;;;;;4.18;1.23;;;;;;;;;;5008397;28;20038;-87
2023/01/03 15:15:56;;;;;;;4.40;1.08;;;;;;;;;;5009921;28;20166;-86
2023/01/03 15:18:28;;;;;;;4.95;1.60;;;;;;;;;;5010696;28;20025;-87
2023/01/03 15:21:01;;;;;;;3.40;1.20;;;;;;;;;;5028095;28;20056;-87
2023/01/03 15:23:58;;;;;;;2.53;1.52;;;;;;;;;;5028339;28;20040;-86
2023/01/03 15:26:46;;;;;;;4.50;1.02;;;;;;;;;;5029165;28;20053;-86
2023/01/03 15:29:13;;;;;;;5.03;1.10;;;;;;;;;;5034706;28;20475;-85
2023/01/03 15:31:54;;;;;;;2.58;1.40;;;;;;;;;;5014030;28;20036;-86
2023/01/03 15:34:39;;;;;;;6.10;1.40;;;;;;;;;;5031175;28;20384;-86
2023/01/03 15:43:37;;;;;;;4.00;0.90;;;;;;;;;;5028138;28;20391;-89
2023/01/03 15:46:09;;;;;;;8.63;1.50;;;;;;;;;;5010123;28;20025;-86
2023/01/03 15:48:35;;;;;;;;;;;;;;;;;;5025461;28;20037;-86
2023/01/03 15:51:01;;;;;;;3.25;1.10;;;;;;;;;;5025391;28;19913;-86
2023/01/03 15:53:36;;;;;;;1.83;1.05;;;;;;;;;;5022587;28;20419;-88
2023/01/03 15:56:19;;;;;;;2.58;1.35;;;;;;;;;;5023082;28;20116;-88
2023/01/03 15:58:47;;;;;;;2.72;0.95;;;;;;;;;;5004027;28;20038;-87
2023/01/03 16:01:57;;;;;;;2.13;0.88;;;;;;;;;;5024673;28;20029;-87
2023/01/03 16:04:24;;;;;;;2.83;1.20;;;;;;;;;;5007076;28;20031;-88
2023/01/03 16:07:04;;;;;;;1.58;1.10;;;;;;;;;;5026044;28;20033;-85
2023/01/03 16:09:34;;;;;;;1.70;1.00;;;;;;;;;;5025768;28;20083;-84
2023/01/03 16:11:59;;;;;;;3.90;1.15;;;;;;;;;;5007331;28;21363;-86
2023/01/03 16:14:35;;;;;;;4.03;1.42;;;;;;;;;;5027641;28;20022;-88
2023/01/03 16:17:02;;;;;;;3.17;1.10;;;;;;;;;;5010313;28;20104;-85
2023/01/03 16:19:28;;;;;;;2.25;1.20;;;;;;;;;;5008823;28;20036;-90
2023/01/03 16:21:57;;;;;;;3.55;1.30;;;;;;;;;;5037625;28;20029;-84
2023/01/03 16:24:23;;;;;;;1.23;1.13;;;;;;;;;;5022207;28;20076;-87
2023/01/03 16:26:48;;;;;;;5.20;1.48;;;;;;;;;;5037299;28;20025;-88
2023/01/03 16:29:14;;;;;;;4.53;1.35;;;;;;;;;;5019313;28;20037;-87
2023/01/03 16:31:42;;;;;;;3.17;1.17;;;;;;;;;;5036049;28;20114;-86
2023/01/03 16:34:17;;;;;;;3.67;1.33;;;;;;;;;;5047262;28;20061;-87
2023/01/03 16:36:45;;;;;;;3.72;1.20;;;;;;;;;;5032372;28;20095;-86
2023/01/03 16:39:45;;;;;;;4.07;1.30;;;;;;;;;;5037622;28;20048;-87
2023/01/03 16:42:14;;;;;;;0.90;0.90;;;;;;;;;;5021126;28;20033;-86
2023/01/03 16:44:41;;;;;;;5.47;0.80;;;;;;;;;;5029876;28;20120;-85
2023/01/03 16:47:14;;;;;;;1.58;0.90;;;;;;;;;;5029225;28;20119;-84
2023/01/03 16:49:42;;;;;;;2.58;0.80;;;;;;;;;;5031038;28;20499;-86
2023/01/03 16:52:14;;;;;;;1.15;0.90;;;;;;;;;;5027999;28;20037;-85
2023/01/03 16:54:40;;;;;;;4.03;1.00;;;;;;;;;;5026026;28;21584;-84
2023/01/03 16:57:07;;;;;;;2.85;0.85;;;;;;;;;;5013900;28;20039;-86